Latest Weather Observations for Coen Airport

IDQ60801

Issued at 12:32 pm EST Sunday 24 July 2016 (issued every 30 minutes, with the page automatically refreshed every 10 minutes)

About weather observations | Map of weather stations | Latest weather observations for QLD | Other Formats
Station Details ID: 027073 Name: COEN AIRPORT Lat: -13.76 Lon: 143.12 Height: 159.3 m
Data from the previous 72 hours. | See also: Recent months at Coen Airport
Date/Time
EST
Temp
°C
App
Temp
°C
Dew
Point
°C
Rel
Hum
%
Delta-T
°C
Wind Press
QNH
hPa
Press
MSL
hPa
Rain since
9am
mm
Dir  Spd
km/h
Gust
km/h
Spd
kts
Gust
kts
24/12:30pm 29.3 27.4 16.8 47 7.9 ESE 22 37 12 20 1013.7 - 0.0
24/12:00pm 28.8 27.4 17.0 49 7.4 ESE 20 32 11 17 1014.2 1013.5 0.0
24/11:30am 28.8 27.9 17.7 51 7.1 E 19 30 10 16 1014.5 - 0.0
24/11:00am 28.4 27.8 18.5 55 6.4 E 19 32 10 17 1014.8 - 0.0
24/10:30am 27.7 27.1 18.4 57 6.0 E 19 28 10 15 1014.8 - 0.0
24/10:00am 27.0 26.4 18.8 60 5.3 ESE 20 30 11 16 1015.0 - 0.0
24/09:30am 26.6 26.5 19.5 65 4.6 ENE 19 30 10 16 1014.8 - 0.0
24/09:00am 26.2 27.6 20.3 70 3.9 ESE 13 22 7 12 1014.6 1013.9 0.0
24/08:30am 24.8 26.5 20.1 75 3.1 SE 11 15 6 8 1014.2 - 0.0
24/08:00am 23.0 24.9 19.8 82 2.1 SE 9 11 5 6 1013.8 - 0.0
24/07:30am 19.7 20.8 17.1 85 1.6 SE 7 9 4 5 1013.6 - 0.0
24/07:00am 18.8 19.7 16.0 84 1.7 SSE 6 7 3 4 1013.3 - 0.0
24/06:30am 18.3 19.4 15.6 84 1.6 SE 4 9 2 5 1013.0 - 0.0
24/06:00am 19.7 21.7 16.9 84 1.7 SE 2 6 1 3 1012.8 1012.1 0.0
24/05:30am 20.0 21.3 17.2 84 1.7 SSE 6 13 3 7 1012.6 - 0.0
24/05:00am 19.3 20.7 16.5 84 1.7 SSE 4 9 2 5 1012.4 - 0.0
24/04:30am 18.4 20.1 15.3 82 1.8 CALM 0 0 0 0 1012.1 - 0.0
24/04:00am 18.9 20.7 15.6 81 2.0 CALM 0 0 0 0 1012.0 - 0.0
24/03:30am 19.7 21.1 16.3 81 2.1 SSW 4 9 2 5 1012.2 - 0.0
24/03:00am 19.9 22.0 16.2 79 2.2 CALM 0 0 0 0 1012.3 1011.6 0.0
24/02:30am 20.5 22.6 16.3 77 2.5 CALM 0 0 0 0 1012.5 - 0.0
24/02:00am 21.9 23.7 17.3 75 2.8 NE 4 6 2 3 1012.7 - 0.0
24/01:30am 23.4 24.7 18.5 74 3.1 E 9 15 5 8 1012.7 - 0.0
24/01:00am 23.3 23.7 18.2 73 3.2 ESE 13 17 7 9 1012.7 - 0.0
24/12:30am 23.8 24.1 18.7 73 3.2 E 15 24 8 13 1012.7 - 0.0
24/12:00am 23.2 24.9 18.1 73 3.2 E 6 17 3 9 1013.0 1012.3 0.0
 
Date/Time
EST
Temp
°C
App
Temp
°C
Dew
Point
°C
Rel
Hum
%
Delta-T
°C
Wind Press
QNH
hPa
Press
MSL
hPa
Rain since
9am
mm
Dir  Spd
km/h
Gust
km/h
Spd
kts
Gust
kts
23/11:30pm 23.1 24.2 18.0 73 3.2 ENE 9 17 5 9 1013.2 - 0.0
23/11:00pm 23.0 23.9 18.3 75 3.0 ENE 11 19 6 10 1013.2 - 0.0
23/10:30pm 23.2 23.4 18.5 75 3.0 ENE 15 20 8 11 1013.2 - 0.0
23/10:00pm 23.5 23.6 18.4 73 3.2 ENE 15 22 8 12 1013.2 - 0.0
23/09:30pm 23.7 23.3 18.1 71 3.5 ENE 17 24 9 13 1013.0 - 0.0
23/09:00pm 23.7 24.4 17.9 70 3.6 E 11 17 6 9 1012.8 1012.1 0.0
23/08:30pm 23.8 24.1 17.8 69 3.8 ENE 13 22 7 12 1012.5 - 0.0
23/08:00pm 23.5 25.6 17.3 68 3.9 E 2 9 1 5 1012.3 - 0.0
23/07:30pm 23.8 25.5 17.1 66 4.2 ENE 4 9 2 5 1012.1 - 0.0
23/07:00pm 24.2 24.9 17.0 64 4.5 ENE 9 15 5 8 1011.9 - 0.0
23/06:30pm 24.9 24.7 16.6 60 5.1 NE 13 19 7 10 1011.8 - 0.0
23/06:00pm 25.9 24.7 16.2 55 6.0 NE 17 26 9 14 1011.5 1010.8 0.0
23/05:30pm 27.1 25.9 16.1 51 6.8 NE 17 24 9 13 1011.2 - 0.0
23/05:00pm 28.4 27.4 16.7 49 7.3 E 17 28 9 15 1010.7 - 0.0
23/04:30pm 29.2 28.6 16.7 46 7.9 E 15 20 8 11 1010.6 - 0.0
23/04:00pm 29.4 28.4 16.6 46 8.1 ESE 17 28 9 15 1010.5 - 0.0
23/03:30pm 29.7 29.4 16.5 45 8.3 E 13 24 7 13 1010.6 - 0.0
23/03:00pm 30.7 30.9 17.7 45 8.4 ESE 13 28 7 15 1010.7 1010.0 0.0
23/02:30pm 29.0 27.7 16.9 48 7.6 ESE 19 32 10 17 1010.8 - 0.0
23/02:00pm 31.0 30.6 19.0 48 7.9 SSE 19 30 10 16 1011.2 - 0.0
23/01:30pm 30.4 29.6 18.5 49 7.7 ESE 20 28 11 15 1011.6 - 0.0
23/01:00pm 30.2 30.0 18.6 49 7.5 SSE 17 35 9 19 1012.1 - 0.0
23/12:30pm 30.9 31.5 20.2 53 7.1 SE 17 24 9 13 1012.6 - 0.0
23/12:00pm 29.7 30.9 20.0 56 6.4 NE 13 24 7 13 1013.0 1012.3 0.0
23/11:30am 28.6 28.5 18.7 55 6.4 ENE 17 26 9 14 1013.4 - 0.0
23/11:00am 29.2 29.0 19.8 57 6.2 NE 20 28 11 15 1013.8 - 0.0
23/10:30am 27.6 28.6 19.4 61 5.3 E 13 20 7 11 1014.2 - 0.0
23/10:00am 27.2 27.5 19.5 62 5.0 ENE 17 24 9 13 1014.5 - 0.0
23/09:30am 26.2 26.4 19.3 65 4.5 E 17 24 9 13 1014.5 - 0.0
23/09:00am 25.3 27.8 19.9 72 3.5 ESE 6 24 3 13 1014.3 1013.6 0.0
23/08:30am 24.0 25.9 19.7 77 2.8 SE 9 15 5 8 1014.2 - 0.0
23/08:00am 22.7 24.5 19.5 82 2.1 SSE 9 11 5 6 1014.1 - 0.0
23/07:30am 20.7 21.9 18.3 86 1.5 SSE 9 11 5 6 1014.0 - 0.0
23/07:00am 18.9 19.3 16.3 85 1.6 SE 9 11 5 6 1013.7 - 0.0
23/06:30am 19.3 20.2 16.7 85 1.6 SE 7 9 4 5 1013.3 - 0.0
23/06:00am 19.2 20.0 16.4 84 1.7 SE 7 9 4 5 1013.1 1012.4 0.0
23/05:30am 19.2 19.9 16.2 83 1.8 SE 7 9 4 5 1012.7 - 0.0
23/05:00am 19.6 20.0 16.3 81 2.0 ESE 9 11 5 6 1012.5 - 0.0
23/04:30am 19.6 20.3 16.1 80 2.1 SSE 7 9 4 5 1012.3 - 0.0
23/04:00am 21.1 22.2 17.1 78 2.5 ESE 7 11 4 6 1012.2 - 0.0
23/03:30am 21.4 22.6 17.4 78 2.5 ENE 7 9 4 5 1012.3 - 0.0
23/03:00am 22.0 23.5 17.6 76 2.7 E 6 9 3 5 1012.3 1011.6 0.0
23/02:30am 22.9 23.9 18.7 77 2.7 E 11 19 6 10 1012.4 - 0.0
23/02:00am 22.4 23.3 18.4 78 2.5 E 11 17 6 9 1012.5 - 0.0
23/01:30am 21.4 22.6 17.4 78 2.5 E 7 11 4 6 1012.7 - 0.0
23/01:00am 21.9 22.7 18.1 79 2.4 ENE 11 15 6 8 1012.9 - 0.0
23/12:30am 21.7 22.5 18.1 80 2.3 E 11 19 6 10 1012.9 - 0.0
23/12:00am 21.0 21.8 17.2 79 2.3 NE 9 13 5 7 1013.2 1012.5 0.0
 
Date/Time
EST
Temp
°C
App
Temp
°C
Dew
Point
°C
Rel
Hum
%
Delta-T
°C
Wind Press
QNH
hPa
Press
MSL
hPa
Rain since
9am
mm
Dir  Spd
km/h
Gust
km/h
Spd
kts
Gust
kts
22/11:30pm 20.9 21.9 16.9 78 2.5 ENE 7 9 4 5 1013.2 - 0.0
22/11:00pm 21.2 22.2 16.8 76 2.7 E 7 9 4 5 1013.4 - 0.0
22/10:30pm 22.0 23.1 17.2 74 3.0 E 7 13 4 7 1013.4 - 0.0
22/10:00pm 22.5 22.6 17.4 73 3.2 ENE 13 22 7 12 1013.3 - 0.0
22/09:30pm 21.6 22.9 16.1 71 3.3 ENE 4 9 2 5 1013.2 - 0.0
22/09:00pm 21.6 23.1 15.7 69 3.6 ESE 2 7 1 4 1013.1 1012.4 0.0
22/08:30pm 22.8 24.0 15.9 65 4.2 ESE 4 9 2 5 1012.8 - 0.0
22/08:00pm 23.0 23.8 16.3 66 4.1 E 7 11 4 6 1012.5 - 0.0
22/07:30pm 23.4 24.0 16.7 66 4.1 ENE 9 15 5 8 1012.3 - 0.0
22/07:00pm 24.0 23.8 16.8 64 4.5 ENE 13 19 7 10 1012.1 - 0.0
22/06:30pm 24.7 24.5 16.7 61 5.0 ENE 13 20 7 11 1012.0 - 0.0
22/06:00pm 25.5 25.3 16.6 58 5.5 ENE 13 22 7 12 1011.9 1011.2 0.0
22/05:30pm 26.7 26.2 16.0 52 6.6 E 13 20 7 11 1012.0 - 0.0
22/05:00pm 27.4 26.1 15.7 48 7.2 ENE 17 26 9 14 1011.8 - 0.0
22/04:30pm 27.5 26.1 15.5 48 7.4 ENE 17 28 9 15 1011.8 - 0.0
22/04:00pm 28.4 28.1 17.3 51 7.0 E 15 24 8 13 1011.7 - 0.0
22/03:30pm 28.4 27.4 17.9 53 6.7 ESE 20 32 11 17 1011.8 - 0.0
22/03:00pm 28.7 27.9 17.2 49 7.3 E 17 24 9 13 1011.9 1011.2 0.0
22/02:30pm 29.2 28.3 18.3 51 7.0 ENE 20 33 11 18 1012.2 - 0.0
22/02:00pm 28.9 28.5 18.9 54 6.5 E 19 32 10 17 1012.6 - 0.0
22/01:30pm 27.9 27.6 19.1 58 5.7 ENE 19 32 10 17 1013.2 - 0.0
22/01:00pm 27.4 26.2 19.2 61 5.3 E 24 33 13 18 1013.8 - 0.0
22/12:30pm 28.6 28.8 20.6 62 5.3 ENE 20 32 11 17 1014.0 - 0.0
22/12:00pm 27.0 26.3 19.6 64 4.8 E 22 35 12 19 1014.5 1013.8 0.0
22/11:30am 26.2 26.5 19.6 67 4.3 E 17 28 9 15 1015.0 - 0.0
22/11:00am 26.6 25.9 19.5 65 4.6 E 22 41 12 22 1015.1 - 0.0
22/10:30am 28.2 29.5 21.7 68 4.4 E 17 32 9 17 1015.0 - 0.0
22/10:00am 26.7 26.9 20.5 69 4.1 SE 20 35 11 19 1015.1 - 0.0
22/09:30am 26.2 27.2 21.0 73 3.5 SE 17 26 9 14 1014.9 - 0.0
22/09:00am 25.8 27.3 21.2 76 3.1 SE 15 20 8 11 1014.7 1014.0 0.0
22/08:30am 24.3 25.4 20.4 79 2.6 SSE 15 20 8 11 1014.4 - 0.0
22/08:00am 24.2 26.4 20.5 80 2.4 SE 9 13 5 7 1014.2 - 0.0
22/07:30am 23.5 25.2 20.2 82 2.1 SE 11 17 6 9 1013.9 - 0.0
22/07:00am 22.6 24.8 19.6 83 1.9 SE 7 13 4 7 1013.6 - 0.0
22/06:30am 22.5 24.3 19.5 83 1.9 SE 9 15 5 8 1013.4 - 0.0
22/06:00am 22.9 23.2 19.7 82 2.1 SSE 17 20 9 11 1013.3 1012.6 0.0
22/05:30am 23.0 24.4 19.6 81 2.2 S 11 13 6 7 1013.0 - 0.0
22/05:00am 22.8 24.4 19.2 80 2.3 SSE 9 11 5 6 1012.8 - 0.0
22/04:30am 23.1 24.5 19.5 80 2.3 S 11 13 6 7 1012.7 - 0.0
22/04:00am 23.1 24.8 19.3 79 2.4 SE 9 13 5 7 1012.7 - 0.0
22/03:30am 23.3 25.2 19.7 80 2.3 SSE 9 13 5 7 1012.9 - 0.0
22/03:00am 23.3 24.2 19.2 78 2.6 SSE 13 15 7 8 1013.0 1012.3 0.0
22/02:30am 23.5 24.8 19.2 77 2.8 SE 11 13 6 7 1013.1 - 0.0
22/02:00am 24.1 25.4 19.4 75 3.0 ESE 11 17 6 9 1013.4 - 0.0
22/01:30am 24.2 25.5 19.3 74 3.2 ESE 11 15 6 8 1013.6 - 0.0
22/01:00am 23.6 25.5 18.9 75 3.0 E 7 13 4 7 1013.9 - 0.0
22/12:30am 23.4 24.7 18.5 74 3.1 ESE 9 13 5 7 1013.9 - 0.0
22/12:00am 23.5 25.2 18.4 73 3.2 SE 7 11 4 6 1013.8 1013.1 0.0
 
Date/Time
EST
Temp
°C
App
Temp
°C
Dew
Point
°C
Rel
Hum
%
Delta-T
°C
Wind Press
QNH
hPa
Press
MSL
hPa
Rain since
9am
mm
Dir  Spd
km/h
Gust
km/h
Spd
kts
Gust
kts
21/11:30pm 23.8 25.8 18.7 73 3.2 E 6 11 3 6 1013.8 - 0.0
21/11:00pm 24.1 25.3 19.0 73 3.3 E 11 19 6 10 1014.0 - 0.0
21/10:30pm 23.7 25.2 18.8 74 3.1 E 9 15 5 8 1014.2 - 0.0
21/10:00pm 22.7 24.2 18.0 75 3.0 NE 7 11 4 6 1014.2 - 0.0
21/09:30pm 22.6 23.6 17.7 74 3.1 NNE 9 11 5 6 1014.2 - 0.0
21/09:00pm 22.7 24.1 17.4 72 3.3 NNE 6 7 3 4 1014.1 1013.4 0.0
21/08:30pm 22.9 24.2 17.6 72 3.3 ENE 7 11 4 6 1013.7 - 0.0
21/08:00pm 23.3 24.5 17.3 69 3.7 ENE 7 9 4 5 1013.6 - 0.0
21/07:30pm 24.0 25.0 17.7 68 4.0 NE 9 13 5 7 1013.2 - 0.0
21/07:00pm 24.4 25.2 17.4 65 4.4 NE 9 15 5 8 1012.9 - 0.0
21/06:30pm 25.4 26.0 16.8 59 5.4 ENE 9 11 5 6 1012.5 - 0.0
21/06:00pm 26.6 25.3 16.8 55 6.1 ESE 19 28 10 15 1012.3 1011.6 0.0
21/05:30pm 27.6 26.3 17.2 53 6.6 ESE 20 26 11 14 1012.1 - 0.0
21/05:00pm 28.5 28.0 17.7 52 6.9 ENE 17 24 9 13 1012.0 - 0.0
21/04:30pm 28.8 27.7 17.7 51 7.1 ESE 20 32 11 17 1011.8 - 0.0
21/04:00pm 29.4 28.6 17.9 50 7.4 E 19 32 10 17 1011.6 - 0.0
21/03:30pm 29.2 27.5 18.0 51 7.2 E 24 33 13 18 1011.7 - 0.0
21/03:00pm 29.2 28.4 18.0 51 7.2 E 19 35 10 19 1012.0 1011.3 0.0
21/02:30pm 30.2 29.9 18.3 49 7.7 E 17 28 9 15 1012.4 - 0.0
21/02:00pm 29.3 27.3 17.5 49 7.5 ESE 24 35 13 19 1012.7 - 0.0
21/01:30pm 30.2 28.1 18.0 48 7.9 SE 26 35 14 19 1013.1 - 0.0
21/01:00pm 30.1 29.3 18.5 49 7.5 E 20 32 11 17 1013.5 - 0.0

Other Formats:

Comma delimited format used in spreadsheet applications
http://www.bom.gov.au/fwo/IDQ60801/IDQ60801.94183.axf

JavaScript Object Notation format (JSON) in row-major order
http://www.bom.gov.au/fwo/IDQ60801/IDQ60801.94183.json